createdAt,value
2022-12-16T00:01:12.462Z,9.88
2022-12-16T00:03:42.100Z,9.50
2022-12-16T00:06:14.146Z,9.90
2022-12-16T00:08:43.567Z,9.85
2022-12-16T00:11:13.020Z,10.30
2022-12-16T00:13:43.064Z,10.25
2022-12-16T00:16:13.558Z,9.87
2022-12-16T00:18:43.181Z,9.77
2022-12-16T00:21:15.161Z,9.68
2022-12-16T00:23:44.587Z,10.40
2022-12-16T00:26:14.180Z,10.20
2022-12-16T00:28:44.023Z,9.75
2022-12-16T00:31:13.569Z,9.70
2022-12-16T00:33:43.054Z,10.07
2022-12-16T00:36:15.088Z,10.43
2022-12-16T00:38:44.509Z,9.90
2022-12-16T00:41:13.935Z,9.23
2022-12-16T00:43:43.375Z,10.00
2022-12-16T00:46:12.860Z,9.20
2022-12-16T00:48:42.314Z,9.30
2022-12-16T00:51:11.718Z,8.90
2022-12-16T00:53:43.718Z,8.30
2022-12-16T00:56:14.571Z,8.20
2022-12-16T00:58:44.188Z,8.73
2022-12-16T01:01:13.873Z,8.85
2022-12-16T01:03:43.679Z,8.27
2022-12-16T01:06:14.028Z,8.40
2022-12-16T01:08:49.029Z,8.18
2022-12-16T01:11:18.806Z,8.50
2022-12-16T01:13:49.012Z,8.48
2022-12-16T01:16:18.492Z,7.55
2022-12-16T01:18:47.989Z,8.60
2022-12-16T01:21:17.681Z,7.50
2022-12-16T01:23:50.004Z,6.95
2022-12-16T01:26:20.166Z,7.07
2022-12-16T01:28:50.790Z,7.32
2022-12-16T01:31:20.806Z,8.05
2022-12-16T01:33:50.659Z,7.50
2022-12-16T01:36:20.200Z,8.25
2022-12-16T01:38:52.190Z,8.27
2022-12-16T01:41:21.608Z,8.20
2022-12-16T01:43:51.033Z,8.45
2022-12-16T01:46:23.258Z,8.48
2022-12-16T01:48:54.494Z,8.52
2022-12-16T01:51:26.298Z,8.43
2022-12-16T01:54:00.147Z,7.97
2022-12-16T01:56:31.093Z,8.07
2022-12-16T02:01:29.841Z,7.72
2022-12-16T02:04:01.857Z,6.90
2022-12-16T02:06:31.287Z,7.78
2022-12-16T02:09:06.110Z,7.75
2022-12-16T02:11:56.552Z,7.50
2022-12-16T02:15:01.506Z,7.72
2022-12-16T02:17:33.418Z,7.47
2022-12-16T02:20:23.839Z,7.50
2022-12-16T02:23:02.009Z,7.53
2022-12-16T02:25:43.462Z,7.60
2022-12-16T02:28:12.875Z,7.70
2022-12-16T02:31:02.439Z,8.40
2022-12-16T02:33:42.907Z,8.10
2022-12-16T02:36:14.913Z,8.43
2022-12-16T02:38:50.146Z,8.10
2022-12-16T02:41:26.361Z,7.78
2022-12-16T02:43:57.654Z,8.27
2022-12-16T02:46:30.333Z,8.70
2022-12-16T02:48:59.740Z,8.90
2022-12-16T02:51:29.335Z,8.82
2022-12-16T02:53:58.941Z,9.10
2022-12-16T02:56:34.644Z,8.73
2022-12-16T02:59:11.426Z,8.48
2022-12-16T03:01:45.859Z,8.73
2022-12-16T03:04:17.362Z,8.25
2022-12-16T03:06:47.474Z,8.27
2022-12-16T03:09:17.013Z,7.93
2022-12-16T03:11:46.430Z,8.25
2022-12-16T03:14:18.585Z,7.78
2022-12-16T03:16:50.645Z,8.35
2022-12-16T03:19:20.602Z,7.78
2022-12-16T03:21:53.454Z,8.20
2022-12-16T03:24:22.929Z,8.27
2022-12-16T03:26:55.499Z,7.85
2022-12-16T03:29:27.926Z,8.23
2022-12-16T03:32:01.258Z,8.40
2022-12-16T03:34:34.196Z,8.73
2022-12-16T03:37:07.200Z,8.20
2022-12-16T03:39:38.027Z,8.45
2022-12-16T03:42:07.645Z,8.48
2022-12-16T03:44:37.392Z,9.10
2022-12-16T03:47:09.405Z,8.73
2022-12-16T03:49:39.006Z,8.60
2022-12-16T03:52:08.671Z,9.23
2022-12-16T03:54:38.090Z,8.85
2022-12-16T03:57:13.294Z,8.90
2022-12-16T03:59:44.569Z,8.48
2022-12-16T04:02:16.699Z,9.10
2022-12-16T04:04:46.187Z,8.57
2022-12-16T04:07:24.922Z,8.80
2022-12-16T04:09:54.802Z,9.23
2022-12-16T04:12:36.726Z,8.15
2022-12-16T04:15:18.810Z,9.25
2022-12-16T04:18:03.270Z,8.70
2022-12-16T04:20:47.264Z,8.38
2022-12-16T04:23:29.283Z,8.85
2022-12-16T04:25:58.795Z,8.88
2022-12-16T04:28:30.451Z,9.60
2022-12-16T04:30:59.881Z,9.30
2022-12-16T04:33:44.382Z,9.02
2022-12-16T04:36:26.277Z,9.23
2022-12-16T04:39:08.158Z,8.45
2022-12-16T04:41:50.049Z,8.85
2022-12-16T04:44:32.015Z,8.70
2022-12-16T04:47:14.031Z,8.73
2022-12-16T04:49:58.514Z,8.90
2022-12-16T04:52:40.409Z,8.35
2022-12-16T04:55:23.055Z,9.38
2022-12-16T04:58:05.806Z,8.85
2022-12-16T05:00:47.678Z,8.73
2022-12-16T05:03:29.931Z,7.88
2022-12-16T05:06:14.882Z,7.90
2022-12-16T05:08:56.775Z,6.68
2022-12-16T05:11:38.675Z,7.30
2022-12-16T05:14:20.583Z,6.55
2022-12-16T05:17:02.503Z,6.80
2022-12-16T05:19:44.381Z,7.28
2022-12-16T05:22:29.097Z,8.13
2022-12-16T05:25:11.012Z,8.15
2022-12-16T05:27:53.003Z,8.00
2022-12-16T05:30:34.881Z,8.57
2022-12-16T05:33:16.758Z,8.57
2022-12-16T05:35:58.662Z,9.18
2022-12-16T05:38:51.989Z,8.73
2022-12-16T05:41:34.002Z,9.00
2022-12-16T05:44:15.918Z,9.07
2022-12-16T05:46:57.908Z,8.43
2022-12-16T05:49:39.902Z,9.40
2022-12-16T05:52:21.817Z,8.70
2022-12-16T05:55:06.270Z,9.77
2022-12-16T05:57:48.162Z,8.48
2022-12-16T06:00:30.863Z,7.72
2022-12-16T06:03:12.845Z,7.50
2022-12-16T06:05:54.829Z,7.45
2022-12-16T06:08:36.792Z,7.05
2022-12-16T06:11:21.258Z,7.00
2022-12-16T06:14:03.157Z,7.55
2022-12-16T06:16:45.091Z,6.93
2022-12-16T06:19:27.020Z,6.63
2022-12-16T06:22:08.885Z,6.40
2022-12-16T06:24:50.942Z,6.05
2022-12-16T06:27:38.125Z,6.47
2022-12-16T06:30:21.137Z,5.75
2022-12-16T06:33:03.045Z,5.63
2022-12-16T06:35:45.056Z,6.18
2022-12-16T06:38:26.933Z,5.95
2022-12-16T06:41:08.827Z,6.30
2022-12-16T06:43:53.310Z,6.57
2022-12-16T06:46:35.213Z,5.78
2022-12-16T06:49:20.284Z,5.95
2022-12-16T06:52:02.178Z,6.10
2022-12-16T06:54:44.089Z,6.30
2022-12-16T06:57:25.973Z,5.40
2022-12-16T07:00:10.942Z,5.80
2022-12-16T07:02:52.907Z,5.63
2022-12-16T07:05:35.076Z,5.47
2022-12-16T07:08:16.990Z,5.43
2022-12-16T07:11:15.295Z,5.88
2022-12-16T07:13:58.318Z,5.43
2022-12-16T07:16:42.876Z,5.10
2022-12-16T07:19:24.786Z,5.32
2022-12-16T07:22:06.706Z,5.68
2022-12-16T07:24:48.607Z,5.55
2022-12-16T07:27:30.529Z,5.88
2022-12-16T07:30:12.430Z,7.57
2022-12-16T07:32:56.971Z,5.85
2022-12-16T07:35:38.987Z,4.70
2022-12-16T07:38:20.895Z,5.13
2022-12-16T07:41:06.309Z,5.00
2022-12-16T07:43:48.185Z,5.25
2022-12-16T07:46:30.167Z,4.68
2022-12-16T07:49:14.790Z,5.50
2022-12-16T07:51:56.900Z,6.25
2022-12-16T07:54:38.848Z,6.03
2022-12-16T07:57:20.747Z,5.45
2022-12-16T08:00:02.651Z,5.00
2022-12-16T08:02:44.767Z,4.78
2022-12-16T08:05:29.531Z,4.82
2022-12-16T08:08:11.470Z,4.85
2022-12-16T08:10:53.371Z,4.72
2022-12-16T08:13:37.747Z,4.90
2022-12-16T08:16:20.789Z,4.97
2022-12-16T08:19:07.552Z,5.20
2022-12-16T08:21:55.410Z,4.90
2022-12-16T08:24:37.752Z,5.10
2022-12-16T08:27:19.792Z,5.22
2022-12-16T08:30:01.720Z,5.15
2022-12-16T08:32:43.873Z,5.50
2022-12-16T08:35:25.782Z,5.30
2022-12-16T08:38:14.067Z,5.30
2022-12-16T08:41:11.110Z,5.63
2022-12-16T08:43:53.004Z,5.45
2022-12-16T08:46:35.163Z,6.30
2022-12-16T08:49:17.412Z,5.65
2022-12-16T08:51:59.467Z,5.63
2022-12-16T08:54:43.966Z,5.97
2022-12-16T08:57:25.861Z,5.90
2022-12-16T09:00:07.775Z,5.88
2022-12-16T09:02:49.867Z,5.00
2022-12-16T09:05:31.952Z,7.22
2022-12-16T09:08:14.616Z,5.90
2022-12-16T09:10:59.090Z,5.05
2022-12-16T09:13:41.010Z,4.80
2022-12-16T09:16:23.333Z,6.05
2022-12-16T09:19:05.271Z,5.80
2022-12-16T09:21:47.173Z,6.97
2022-12-16T09:24:29.096Z,5.35
2022-12-16T09:27:13.641Z,6.60
2022-12-16T09:29:55.567Z,5.55
2022-12-16T09:32:37.783Z,4.78
2022-12-16T09:35:20.269Z,5.90
2022-12-16T09:38:02.260Z,5.20
2022-12-16T09:40:44.163Z,5.78
2022-12-16T09:43:40.977Z,5.47
2022-12-16T09:46:26.551Z,4.82
2022-12-16T09:49:11.444Z,4.70
2022-12-16T09:51:53.432Z,4.75
2022-12-16T09:54:35.344Z,4.90
2022-12-16T09:57:17.924Z,4.88
2022-12-16T10:00:05.194Z,4.78
2022-12-16T10:02:47.297Z,4.60
2022-12-16T10:05:38.579Z,4.53
2022-12-16T10:08:24.403Z,4.60
2022-12-16T10:11:11.877Z,4.60
2022-12-16T10:13:55.601Z,4.50
2022-12-16T10:16:56.975Z,4.40
2022-12-16T10:19:45.814Z,4.60
2022-12-16T10:22:31.243Z,4.60
2022-12-16T10:25:19.121Z,5.18
2022-12-16T10:28:10.205Z,4.82
2022-12-16T10:30:52.884Z,4.95
2022-12-16T10:33:38.689Z,4.90
2022-12-16T10:36:21.489Z,4.75
2022-12-16T10:39:05.003Z,5.15
2022-12-16T10:41:48.643Z,5.32
2022-12-16T10:44:34.321Z,5.57
2022-12-16T10:47:16.218Z,5.70
2022-12-16T10:50:00.945Z,5.28
2022-12-16T10:52:42.906Z,5.47
2022-12-16T10:55:30.087Z,4.72
2022-12-16T10:58:16.204Z,5.43
2022-12-16T11:00:59.790Z,4.75
2022-12-16T11:03:42.909Z,5.25
2022-12-16T11:06:30.335Z,6.15
2022-12-16T11:09:12.230Z,5.82
2022-12-16T11:11:54.129Z,6.35
2022-12-16T11:14:38.639Z,6.00
2022-12-16T11:17:28.283Z,7.38
2022-12-16T11:20:24.110Z,7.47
2022-12-16T11:23:23.195Z,7.63
2022-12-16T11:26:05.110Z,7.03
2022-12-16T11:28:47.008Z,7.20
2022-12-16T11:31:29.481Z,7.40
2022-12-16T11:34:11.391Z,6.20
2022-12-16T11:36:53.729Z,6.45
2022-12-16T11:39:39.456Z,6.28
2022-12-16T11:42:21.566Z,6.15
2022-12-16T11:45:04.559Z,6.53
2022-12-16T11:47:51.102Z,6.10
2022-12-16T11:50:34.590Z,5.97
2022-12-16T11:53:16.525Z,5.47
2022-12-16T11:56:06.829Z,6.15
2022-12-16T11:58:55.916Z,6.03
2022-12-16T12:01:44.996Z,6.40
2022-12-16T12:04:27.594Z,6.20
2022-12-16T12:07:19.876Z,6.47
2022-12-16T12:10:07.127Z,6.00
2022-12-16T12:12:54.070Z,6.32
2022-12-16T12:15:40.002Z,6.85
2022-12-16T12:18:27.185Z,6.57
2022-12-16T12:21:10.882Z,7.15
2022-12-16T12:23:55.787Z,6.57
2022-12-16T12:26:39.348Z,6.40
2022-12-16T12:29:28.654Z,7.20
2022-12-16T12:32:13.603Z,10.15
2022-12-16T12:34:58.028Z,8.00
2022-12-16T12:37:41.345Z,6.50
2022-12-16T12:40:33.434Z,6.72
2022-12-16T12:43:15.640Z,7.10
2022-12-16T12:46:10.355Z,6.90
2022-12-16T12:48:57.635Z,6.43
2022-12-16T12:51:41.603Z,6.50
2022-12-16T12:54:33.052Z,6.22
2022-12-16T12:57:15.374Z,6.88
2022-12-16T13:00:02.956Z,6.90
2022-12-16T13:02:52.941Z,7.53
2022-12-16T13:05:34.962Z,6.85
2022-12-16T13:08:46.760Z,5.85
2022-12-16T13:11:35.135Z,6.47
2022-12-16T13:14:17.615Z,6.32
2022-12-16T13:17:25.249Z,6.97
2022-12-16T13:20:15.895Z,6.90
2022-12-16T13:22:59.311Z,7.20
2022-12-16T13:25:56.283Z,8.18
2022-12-16T13:28:40.098Z,7.97
2022-12-16T13:31:25.562Z,7.40
2022-12-16T13:34:08.065Z,7.28
2022-12-16T13:36:52.995Z,8.00
2022-12-16T13:39:39.265Z,7.30
2022-12-16T13:42:21.186Z,7.72
2022-12-16T13:45:13.343Z,7.30
2022-12-16T13:48:13.566Z,7.68
2022-12-16T13:50:56.577Z,7.32
2022-12-16T13:53:42.265Z,7.10
2022-12-16T13:56:25.502Z,7.47
2022-12-16T13:59:08.062Z,6.20
2022-12-16T14:01:52.227Z,6.32
2022-12-16T14:04:39.022Z,6.28
2022-12-16T14:07:24.671Z,5.25
2022-12-16T14:10:09.504Z,5.43
2022-12-16T14:13:01.691Z,4.50
2022-12-16T14:15:48.579Z,4.40
2022-12-16T14:18:39.231Z,5.00
2022-12-16T14:21:25.648Z,5.70
2022-12-16T14:24:08.832Z,6.43
2022-12-16T14:26:53.342Z,6.60
2022-12-16T14:29:37.069Z,6.50
2022-12-16T14:32:28.541Z,7.10
2022-12-16T14:35:16.447Z,7.05
2022-12-16T14:37:58.383Z,7.47
2022-12-16T14:40:43.714Z,7.28
2022-12-16T14:43:30.597Z,7.82
2022-12-16T14:46:12.740Z,7.82
2022-12-16T14:48:54.689Z,8.13
2022-12-16T14:51:41.767Z,7.88
2022-12-16T14:54:37.247Z,8.10
2022-12-16T14:57:19.395Z,7.78
2022-12-16T15:00:14.254Z,8.90
2022-12-16T15:02:56.364Z,8.45
2022-12-16T15:05:39.394Z,8.40
2022-12-16T15:08:21.371Z,8.23
2022-12-16T15:11:03.278Z,8.23
2022-12-16T15:13:45.205Z,8.57
2022-12-16T15:16:30.941Z,8.45
2022-12-16T15:19:14.159Z,7.85
2022-12-16T15:21:56.269Z,8.50
2022-12-16T15:24:39.170Z,8.27
2022-12-16T15:27:37.856Z,8.23
2022-12-16T15:30:47.412Z,8.70
2022-12-16T15:33:33.967Z,8.90
2022-12-16T15:36:16.559Z,9.60
2022-12-16T15:38:58.513Z,9.40
2022-12-16T15:41:44.201Z,9.18
2022-12-16T15:44:33.385Z,9.18
2022-12-16T15:47:15.310Z,8.75
2022-12-16T15:50:04.341Z,9.27
2022-12-16T15:52:49.694Z,9.43
2022-12-16T15:55:42.276Z,9.18
2022-12-16T15:58:28.723Z,9.13
2022-12-16T16:01:12.512Z,9.30
2022-12-16T16:03:54.570Z,9.75
2022-12-16T16:06:39.787Z,9.40
2022-12-16T16:09:28.612Z,8.75
2022-12-16T16:12:10.534Z,8.73
2022-12-16T16:14:52.471Z,8.65
2022-12-16T16:17:36.303Z,8.43
2022-12-16T16:20:18.322Z,8.15
2022-12-16T16:23:02.830Z,8.43
2022-12-16T16:25:44.726Z,8.93
2022-12-16T16:28:26.669Z,8.18
2022-12-16T16:31:08.622Z,8.73
2022-12-16T16:33:50.604Z,8.85
2022-12-16T16:36:32.521Z,8.95
2022-12-16T16:39:17.033Z,8.50
2022-12-16T16:41:58.962Z,8.70
2022-12-16T16:44:40.897Z,7.97
2022-12-16T16:47:24.463Z,7.60
2022-12-16T16:50:06.511Z,8.02
2022-12-16T16:52:48.447Z,7.72
2022-12-16T16:55:34.342Z,7.38
2022-12-16T16:58:16.298Z,7.45
2022-12-16T17:00:58.333Z,7.60
2022-12-16T17:03:41.156Z,8.63
2022-12-16T17:06:23.613Z,8.38
2022-12-16T17:09:05.549Z,7.38
2022-12-16T17:11:50.042Z,8.25
2022-12-16T17:14:33.006Z,7.57
2022-12-16T17:17:15.042Z,8.45
2022-12-16T17:19:57.014Z,7.55
2022-12-16T17:22:38.910Z,7.65
2022-12-16T17:25:22.274Z,8.32
2022-12-16T17:28:06.755Z,11.35
2022-12-16T17:30:51.195Z,11.38
2022-12-16T17:33:33.588Z,10.13
2022-12-16T17:36:15.869Z,10.20
2022-12-16T17:38:58.474Z,10.40
2022-12-16T17:41:40.617Z,9.32
2022-12-16T17:44:25.121Z,9.02
2022-12-16T17:47:07.032Z,8.80
2022-12-16T17:49:48.947Z,8.27
2022-12-16T17:52:30.882Z,8.32
2022-12-16T17:55:12.796Z,8.25
2022-12-16T17:57:54.720Z,8.10
2022-12-16T18:00:39.252Z,8.52
2022-12-16T18:03:36.176Z,9.15
2022-12-16T18:06:18.619Z,8.85
2022-12-16T18:09:00.497Z,8.80
2022-12-16T18:11:42.399Z,8.52
2022-12-16T18:14:24.422Z,11.00
2022-12-16T18:17:08.915Z,9.27
2022-12-16T18:20:02.474Z,11.00
2022-12-16T18:22:44.381Z,9.48
2022-12-16T18:25:26.298Z,8.95
2022-12-16T18:28:23.159Z,10.75
2022-12-16T18:31:16.735Z,8.10
2022-12-16T18:34:01.287Z,8.35
2022-12-16T18:36:57.949Z,9.98
2022-12-16T18:39:39.888Z,9.38
2022-12-16T18:42:21.802Z,9.00
2022-12-16T18:45:04.451Z,8.30
2022-12-16T18:47:46.365Z,8.55
2022-12-16T18:50:37.260Z,8.40
2022-12-16T18:53:20.068Z,8.55
2022-12-16T18:56:01.972Z,8.10
2022-12-16T18:58:51.133Z,8.98
2022-12-16T19:01:33.517Z,14.02
2022-12-16T19:04:15.527Z,14.48
2022-12-16T19:07:00.300Z,17.40
2022-12-16T19:09:42.240Z,15.10
2022-12-16T19:12:24.207Z,10.68
2022-12-16T19:15:06.116Z,11.25
2022-12-16T19:17:48.055Z,9.60
2022-12-16T19:20:33.225Z,8.50
2022-12-16T19:23:17.896Z,9.02
2022-12-16T19:25:59.821Z,8.38
2022-12-16T19:28:42.218Z,8.52
2022-12-16T19:31:28.224Z,8.70
2022-12-16T19:34:26.225Z,8.93
2022-12-16T19:37:08.156Z,8.75
2022-12-16T19:39:53.322Z,8.20
2022-12-16T19:42:35.778Z,8.00
2022-12-16T19:45:17.687Z,8.02
2022-12-16T19:47:59.626Z,8.40
2022-12-16T19:50:41.974Z,8.57
2022-12-16T19:53:23.907Z,7.50
2022-12-16T19:56:12.532Z,8.52
2022-12-16T19:58:56.407Z,7.97
2022-12-16T20:01:47.161Z,8.23
2022-12-16T20:04:29.132Z,7.97
2022-12-16T20:07:11.070Z,9.32
2022-12-16T20:09:54.843Z,8.52
2022-12-16T20:12:40.665Z,9.02
2022-12-16T20:15:23.580Z,9.43
2022-12-16T20:18:05.510Z,8.60
2022-12-16T20:20:47.467Z,9.73
2022-12-16T20:23:29.402Z,9.43
2022-12-16T20:26:11.882Z,8.23
2022-12-16T20:28:56.517Z,9.00
2022-12-16T20:31:38.501Z,7.78
2022-12-16T20:34:20.475Z,7.95
2022-12-16T20:37:02.392Z,8.10
2022-12-16T20:39:49.448Z,7.72
2022-12-16T20:42:51.160Z,7.70
2022-12-16T20:45:37.963Z,9.80
2022-12-16T20:48:22.225Z,8.38
2022-12-16T20:51:10.238Z,8.80
2022-12-16T20:53:53.234Z,8.38
2022-12-16T20:56:35.254Z,8.18
2022-12-16T20:59:17.461Z,7.75
2022-12-16T21:05:03.878Z,7.70
2022-12-16T21:07:45.815Z,7.80
2022-12-16T21:10:27.786Z,7.82
2022-12-16T21:13:09.753Z,8.57
2022-12-16T21:15:52.523Z,8.43
2022-12-16T21:18:41.127Z,7.70
2022-12-16T21:21:23.070Z,8.45
2022-12-16T21:24:04.978Z,8.32
2022-12-16T21:26:46.930Z,8.27
2022-12-16T21:29:28.841Z,7.97
2022-12-16T21:32:10.762Z,7.85
2022-12-16T21:34:56.247Z,8.05
2022-12-16T21:37:38.416Z,7.72
2022-12-16T21:40:21.621Z,10.57
2022-12-16T21:43:03.602Z,9.55
2022-12-16T21:45:45.527Z,10.80
2022-12-16T21:48:45.092Z,11.45
2022-12-16T21:51:29.592Z,13.38
2022-12-16T21:54:11.510Z,13.35
2022-12-16T21:56:53.443Z,14.15
2022-12-16T21:59:38.497Z,13.73
2022-12-16T22:02:20.456Z,13.45
2022-12-16T22:05:02.382Z,14.45
2022-12-16T22:07:47.037Z,15.25
2022-12-16T22:10:29.109Z,14.30
2022-12-16T22:13:11.054Z,16.45
2022-12-16T22:15:52.985Z,15.82
2022-12-16T22:18:50.185Z,18.30
2022-12-16T22:21:32.086Z,15.27
2022-12-16T22:24:16.826Z,15.20
2022-12-16T22:27:01.179Z,14.40
2022-12-16T22:29:43.081Z,15.48
2022-12-16T22:32:24.999Z,14.43
2022-12-16T22:35:06.912Z,14.52
2022-12-16T22:37:48.843Z,13.85
2022-12-16T22:40:33.161Z,15.10
2022-12-16T22:43:15.071Z,13.80
2022-12-16T22:45:57.165Z,13.43
2022-12-16T22:48:39.233Z,13.60
2022-12-16T22:51:37.042Z,13.70
2022-12-16T22:54:19.290Z,13.35
2022-12-16T22:57:03.761Z,13.57
2022-12-16T22:59:45.749Z,14.02
2022-12-16T23:02:27.656Z,14.32
2022-12-16T23:05:09.650Z,14.50
2022-12-16T23:07:51.672Z,14.48
2022-12-16T23:10:33.846Z,13.82
2022-12-16T23:13:18.350Z,14.68
2022-12-16T23:16:00.299Z,14.10
2022-12-16T23:18:42.276Z,14.40
2022-12-16T23:21:29.544Z,14.38
2022-12-16T23:24:11.466Z,14.63
2022-12-16T23:26:53.349Z,14.90
2022-12-16T23:29:40.492Z,14.35
2022-12-16T23:32:22.396Z,14.27
2022-12-16T23:32:31.180Z,8.50
2022-12-16T23:35:04.331Z,14.02
2022-12-16T23:37:46.257Z,13.10
2022-12-16T23:40:28.182Z,13.77
2022-12-16T23:43:10.085Z,14.15
2022-12-16T23:45:54.585Z,14.80
2022-12-16T23:48:38.291Z,14.32
2022-12-16T23:51:20.464Z,14.85
2022-12-16T23:54:02.543Z,16.48
2022-12-16T23:56:44.460Z,16.05
2022-12-16T23:59:26.389Z,15.05
